FredonyerEastRWIS Atmospheric Data: 09/20/2019 Summary  Detailed Graphs  Station List

  Temperature     Wind Precipitation Visibility
Timestamp Air Wet
Bulb
Dew-
point
24-hr
Max
24-hr
Min
Relative
Humidity
Atmospheric
Pressure
Avg
Speed
Avg
Dir
Spot
Speed
Spot
Dir
Max
Speed
Max
Dir
  Rate Situation Start End 1 hr 3 hr 6 hr 12 hr 24 hr   Situation
Date Time °F °F °F °F °F % in Hg mph ° mph ° mph ° Y/N in/hr text Date Time Date Time in in in in in mi text
09/20/2019 12:08 AM 36.68 36.50 36.50 53.78 36.50 99.0 Not Reported 0.00 W 0.00 S 2.01 N No 0.000 No Precipitation 09/19/2019 06:58 AM 09/19/2019 07:03 AM 0.000 0.000 0.000 0.000 0.122 Not Reported Not Reported
09/20/2019 12:23 AM 36.50 36.50 36.32 53.78 36.50 99.0 Not Reported 1.34 SE 1.57 S 1.57 NW No 0.000 No Precipitation 09/19/2019 06:58 AM 09/19/2019 07:03 AM 0.000 0.000 0.000 0.000 0.122 Not Reported Not Reported
09/20/2019 12:39 AM 36.14 35.96 35.96 53.78 36.14 99.0 Not Reported 1.12 NW 1.34 N 2.01 SE No 0.000 No Precipitation 09/19/2019 06:58 AM 09/19/2019 07:03 AM 0.000 0.000 0.000 0.000 0.122 Not Reported Not Reported
09/20/2019 12:53 AM 36.14 36.14 35.96 53.78 36.14 99.0 Not Reported 0.00 N 0.89 S 1.34 W No 0.000 No Precipitation 09/19/2019 06:58 AM 09/19/2019 07:03 AM 0.000 0.000 0.000 0.000 0.122 Not Reported Not Reported
09/20/2019 01:08 AM 35.96 35.96 35.78 53.78 35.78 99.0 Not Reported 0.67 N 0.00 N 0.89 S No 0.000 No Precipitation 09/19/2019 06:58 AM 09/19/2019 07:03 AM 0.000 0.000 0.000 0.000 0.122 Not Reported Not Reported
09/20/2019 01:23 AM 36.14 36.14 35.96 53.78 35.78 99.0 Not Reported 0.00 SW 1.57 NW 1.34 NW No 0.000 No Precipitation 09/19/2019 06:58 AM 09/19/2019 07:03 AM 0.000 0.000 0.000 0.000 0.122 Not Reported Not Reported
09/20/2019 01:38 AM 36.32 36.32 36.32 53.78 35.78 99.0 Not Reported 0.45 N 0.89 N 1.57 NW No 0.000 No Precipitation 09/19/2019 06:58 AM 09/19/2019 07:03 AM 0.000 0.000 0.000 0.000 0.122 Not Reported Not Reported
09/20/2019 01:53 AM 35.78 35.78 35.78 53.78 35.78 99.0 Not Reported 1.79 NW 1.79 NW 1.79 NW No 0.000 No Precipitation 09/19/2019 06:58 AM 09/19/2019 07:03 AM 0.000 0.000 0.000 0.000 0.122 Not Reported Not Reported
09/20/2019 02:08 AM 35.42 35.42 35.42 53.78 35.42 99.0 Not Reported 0.00 N 0.00 NW 2.46 NW No 0.000 No Precipitation 09/19/2019 06:58 AM 09/19/2019 07:03 AM 0.000 0.000 0.000 0.000 0.122 Not Reported Not Reported
09/20/2019 02:23 AM 35.06 34.88 34.88 53.78 35.06 99.0 Not Reported 0.00 N 0.89 W 0.45 SE No 0.000 No Precipitation 09/19/2019 06:58 AM 09/19/2019 07:03 AM 0.000 0.000 0.000 0.000 0.122 Not Reported Not Reported
09/20/2019 02:39 AM 34.88 34.88 34.70 53.78 34.88 99.0 Not Reported 0.00 N 0.00 NW 0.89 NW No 0.000 No Precipitation 09/19/2019 06:58 AM 09/19/2019 07:03 AM 0.000 0.000 0.000 0.000 0.122 Not Reported Not Reported
09/20/2019 02:53 AM 34.52 34.52 34.34 53.78 34.34 99.0 Not Reported 1.34 N 0.67 N 0.89 SE No 0.000 No Precipitation 09/19/2019 06:58 AM 09/19/2019 07:03 AM 0.000 0.000 0.000 0.000 0.122 Not Reported Not Reported
09/20/2019 03:08 AM 34.16 34.16 34.16 53.78 34.16 99.0 Not Reported 0.00 N 0.00 NE 1.57 N No 0.000 No Precipitation 09/19/2019 06:58 AM 09/19/2019 07:03 AM 0.000 0.000 0.000 0.000 0.122 Not Reported Not Reported
09/20/2019 03:23 AM 33.80 33.80 33.80 53.78 33.80 99.0 Not Reported 0.00 N 0.00 N 0.67 N No 0.000 No Precipitation 09/19/2019 06:58 AM 09/19/2019 07:03 AM 0.000 0.000 0.000 0.000 0.122 Not Reported Not Reported
09/20/2019 03:38 AM 33.44 33.44 33.44 53.78 33.44 99.0 Not Reported 0.00 N 0.00 NE 0.45 S No 0.000 No Precipitation 09/19/2019 06:58 AM 09/19/2019 07:03 AM 0.000 0.000 0.000 0.000 0.122 Not Reported Not Reported
09/20/2019 03:53 AM 33.26 33.26 33.26 53.78 33.26 99.0 Not Reported 0.22 NW 1.12 NW 1.12 NW No 0.000 No Precipitation 09/19/2019 06:58 AM 09/19/2019 07:03 AM 0.000 0.000 0.000 0.000 0.122 Not Reported Not Reported
09/20/2019 04:08 AM 33.44 33.44 33.44 53.78 33.26 99.0 Not Reported 0.00 N 0.00 NW 1.12 NW No 0.000 No Precipitation 09/19/2019 06:58 AM 09/19/2019 07:03 AM 0.000 0.000 0.000 0.000 0.122 Not Reported Not Reported
09/20/2019 04:23 AM 33.98 33.98 33.98 53.78 33.26 99.0 Not Reported 0.89 NW 0.00 NW 1.12 NW No 0.000 No Precipitation 09/19/2019 06:58 AM 09/19/2019 07:03 AM 0.000 0.000 0.000 0.000 0.122 Not Reported Not Reported
09/20/2019 04:39 AM 33.80 33.80 33.80 53.78 33.26 99.0 Not Reported 0.22 NW 1.12 SE 2.01 SE No 0.000 No Precipitation 09/19/2019 06:58 AM 09/19/2019 07:03 AM 0.000 0.000 0.000 0.000 0.122 Not Reported Not Reported
09/20/2019 04:53 AM 33.44 33.44 33.44 53.78 33.26 99.0 Not Reported 0.00 SE 0.89 NW 2.24 NW No 0.000 No Precipitation 09/19/2019 06:58 AM 09/19/2019 07:03 AM 0.000 0.000 0.000 0.000 0.118 Not Reported Not Reported
09/20/2019 05:09 AM 33.08 32.90 32.90 53.78 33.08 99.0 Not Reported 0.67 NW 0.89 NW 0.89 NW No 0.000 No Precipitation 09/19/2019 06:58 AM 09/19/2019 07:03 AM 0.000 0.000 0.000 0.000 0.110 Not Reported Not Reported
09/20/2019 05:23 AM 33.26 33.26 33.26 53.78 32.90 99.0 Not Reported 0.45 S 0.00 S 1.34 N No 0.000 No Precipitation 09/19/2019 06:58 AM 09/19/2019 07:03 AM 0.000 0.000 0.000 0.000 0.102 Not Reported Not Reported
09/20/2019 05:38 AM 33.08 33.08 33.08 53.78 32.90 99.0 Not Reported 0.22 NW 0.67 NW 0.67 S No 0.000 No Precipitation 09/19/2019 06:58 AM 09/19/2019 07:03 AM 0.000 0.000 0.000 0.000 0.063 Not Reported Not Reported
09/20/2019 05:53 AM 32.90 32.90 32.72 53.78 32.72 99.0 Not Reported 0.00 N 0.00 NW 1.12 NW No 0.000 No Precipitation 09/19/2019 06:58 AM 09/19/2019 07:03 AM 0.000 0.000 0.000 0.000 0.031 Not Reported Not Reported
09/20/2019 06:08 AM 32.36 32.36 32.36 53.78 32.36 99.0 Not Reported 0.89 NW 0.45 NW 0.00 NW No 0.000 No Precipitation 09/19/2019 06:58 AM 09/19/2019 07:03 AM 0.000 0.000 0.000 0.000 0.016 Not Reported Not Reported
09/20/2019 06:23 AM 32.54 32.36 32.36 53.78 32.36 99.0 Not Reported 0.00 N 0.00 N 1.12 N No 0.000 No Precipitation 09/19/2019 06:58 AM 09/19/2019 07:03 AM 0.000 0.000 0.000 0.000 0.008 Not Reported Not Reported
09/20/2019 06:38 AM 32.36 32.36 32.36 53.78 32.18 99.0 Not Reported 0.00 W 0.00 W 0.00 N No 0.000 No Precipitation 09/19/2019 06:58 AM 09/19/2019 07:03 AM 0.000 0.000 0.000 0.000 0.004 Not Reported Not Reported
09/20/2019 06:53 AM 32.36 32.36 32.36 53.78 32.18 99.0 Not Reported 0.45 NW 0.67 NW 0.00 W No 0.000 No Precipitation 09/19/2019 06:58 AM 09/19/2019 07:03 AM 0.000 0.000 0.000 0.000 0.004 Not Reported Not Reported
09/20/2019 07:08 AM 32.72 32.72 32.72 53.78 32.18 99.0 Not Reported 0.00 N 0.00 N 0.67 NW No 0.000 No Precipitation 09/19/2019 06:58 AM 09/19/2019 07:03 AM 0.000 0.000 0.000 0.000 0.000 Not Reported Not Reported
09/20/2019 07:24 AM 32.90 32.90 32.90 53.78 32.18 99.0 Not Reported 0.45 N 0.89 N 0.00 NW No 0.000 No Precipitation 09/19/2019 06:58 AM 09/19/2019 07:03 AM 0.000 0.000 0.000 0.000 0.000 Not Reported Not Reported
09/20/2019 07:39 AM 33.98 33.98 33.98 53.78 32.18 99.0 Not Reported 0.00 N 0.00 N 0.89 N No 0.000 No Precipitation 09/19/2019 06:58 AM 09/19/2019 07:03 AM 0.000 0.000 0.000 0.000 0.000 Not Reported Not Reported
09/20/2019 07:53 AM 34.70 34.70 34.70 53.78 32.18 99.0 Not Reported 0.00 N 0.00 SE 0.67 E No 0.000 No Precipitation 09/19/2019 06:58 AM 09/19/2019 07:03 AM 0.000 0.000 0.000 0.000 0.000 Not Reported Not Reported
09/20/2019 08:08 AM 36.50 36.50 36.50 53.78 32.18 99.0 Not Reported 0.00 NW 0.00 NW 0.45 NW No 0.000 No Precipitation 09/19/2019 06:58 AM 09/19/2019 07:03 AM 0.000 0.000 0.000 0.000 0.000 Not Reported Not Reported
09/20/2019 08:23 AM 39.02 39.02 39.02 53.78 32.18 99.0 Not Reported 0.89 SE 1.57 SE 0.00 NW No 0.000 No Precipitation 09/19/2019 06:58 AM 09/19/2019 07:03 AM 0.000 0.000 0.000 0.000 0.000 Not Reported Not Reported
09/20/2019 08:38 AM 40.82 40.82 40.82 53.78 32.18 99.0 Not Reported 0.67 S 1.34 S 1.57 SE No 0.000 No Precipitation 09/19/2019 06:58 AM 09/19/2019 07:03 AM 0.000 0.000 0.000 0.000 0.000 Not Reported Not Reported
09/20/2019 08:53 AM 43.70 43.70 43.52 53.78 32.18 99.0 Not Reported 1.34 SE 0.67 SE 1.57 S No 0.000 No Precipitation 09/19/2019 06:58 AM 09/19/2019 07:03 AM 0.000 0.000 0.000 0.000 0.000 Not Reported Not Reported
09/20/2019 09:08 AM 45.68 43.52 41.36 53.78 32.18 85.0 Not Reported 0.45 S 0.22 SE 1.79 SE No 0.000 No Precipitation 09/19/2019 06:58 AM 09/19/2019 07:03 AM 0.000 0.000 0.000 0.000 0.000 Not Reported Not Reported
09/20/2019 09:23 AM 46.40 43.16 39.92 53.78 32.18 78.0 Not Reported 2.24 SE 2.46 SE 2.24 SE No 0.000 No Precipitation 09/19/2019 06:58 AM 09/19/2019 07:03 AM 0.000 0.000 0.000 0.000 0.000 Not Reported Not Reported
09/20/2019 09:38 AM 47.66 43.88 39.92 53.78 32.18 74.0 Not Reported 3.13 S 2.68 SE 3.13 SE No 0.000 No Precipitation 09/19/2019 06:58 AM 09/19/2019 07:03 AM 0.000 0.000 0.000 0.000 0.000 Not Reported Not Reported
09/20/2019 09:53 AM 49.10 43.52 37.22 53.78 32.18 63.0 Not Reported 2.68 E 3.36 SE 4.47 SE No 0.000 No Precipitation 09/19/2019 06:58 AM 09/19/2019 07:03 AM 0.000 0.000 0.000 0.000 0.000 Not Reported Not Reported
09/20/2019 10:08 AM 50.90 44.24 36.50 53.78 32.18 57.0 Not Reported 3.36 SE 3.80 S 3.58 E No 0.000 No Precipitation 09/19/2019 06:58 AM 09/19/2019 07:03 AM 0.000 0.000 0.000 0.000 0.000 Not Reported Not Reported
09/20/2019 10:23 AM 51.62 44.42 36.50 53.78 32.18 56.0 Not Reported 1.34 E 3.58 N 3.13 N No 0.000 No Precipitation 09/19/2019 06:58 AM 09/19/2019 07:03 AM 0.000 0.000 0.000 0.000 0.000 Not Reported Not Reported
09/20/2019 10:38 AM 52.34 44.78 36.32 54.32 32.18 54.0 Not Reported 3.58 N 2.46 NW 4.70 N No 0.000 No Precipitation 09/19/2019 06:58 AM 09/19/2019 07:03 AM 0.000 0.000 0.000 0.000 0.000 Not Reported Not Reported
09/20/2019 10:54 AM 53.60 45.32 36.68 54.32 32.18 51.0 Not Reported 2.46 SE 2.68 SE 5.14 NE No 0.000 No Precipitation 09/19/2019 06:58 AM 09/19/2019 07:03 AM 0.000 0.000 0.000 0.000 0.000 Not Reported Not Reported
09/20/2019 11:08 AM 54.86 45.86 35.78 54.86 32.18 48.0 Not Reported 0.67 W 1.34 S 5.59 S No 0.000 No Precipitation 09/19/2019 06:58 AM 09/19/2019 07:03 AM 0.000 0.000 0.000 0.000 0.000 Not Reported Not Reported
09/20/2019 11:23 AM 53.96 44.96 34.52 55.40 32.18 47.0 Not Reported 4.70 SE 2.91 SW 4.03 N No 0.000 No Precipitation 09/19/2019 06:58 AM 09/19/2019 07:03 AM 0.000 0.000 0.000 0.000 0.000 Not Reported Not Reported
09/20/2019 11:38 AM 54.68 44.60 32.72 56.84 32.18 43.0 Not Reported 3.13 SE 4.92 E 5.14 S No 0.000 No Precipitation 09/19/2019 06:58 AM 09/19/2019 07:03 AM 0.000 0.000 0.000 0.000 0.000 Not Reported Not Reported
09/20/2019 11:53 AM 56.12 45.50 32.90 57.20 32.18 41.0 Not Reported 1.12 NE 0.89 S 6.71 S No 0.000 No Precipitation 09/19/2019 06:58 AM 09/19/2019 07:03 AM 0.000 0.000 0.000 0.000 0.000 Not Reported Not Reported
09/20/2019 12:08 PM 55.94 45.86 34.70 57.20 32.18 44.0 Not Reported 3.58 SE 6.04 S 5.59 SE No 0.000 No Precipitation 09/19/2019 06:58 AM 09/19/2019 07:03 AM 0.000 0.000 0.000 0.000 0.000 Not Reported Not Reported
09/20/2019 12:23 PM 56.66 46.22 34.70 57.20 32.18 43.0 Not Reported 3.80 S 3.58 SE 3.80 E No 0.000 No Precipitation 09/19/2019 06:58 AM 09/19/2019 07:03 AM 0.000 0.000 0.000 0.000 0.000 Not Reported Not Reported
09/20/2019 12:38 PM 57.38 46.76 35.24 59.18 32.18 43.0 Not Reported 3.13 S 4.70 SE 5.59 SE No 0.000 No Precipitation 09/19/2019 06:58 AM 09/19/2019 07:03 AM 0.000 0.000 0.000 0.000 0.000 Not Reported Not Reported
09/20/2019 12:53 PM 58.46 47.66 36.32 59.18 32.18 43.0 Not Reported 3.36 SE 1.57 N 5.14 SE No 0.000 No Precipitation 09/19/2019 06:58 AM 09/19/2019 07:03 AM 0.000 0.000 0.000 0.000 0.000 Not Reported Not Reported
09/20/2019 01:08 PM 57.92 47.12 35.24 59.36 32.18 42.0 Not Reported 4.70 SE 4.25 SE 5.14 E No 0.000 No Precipitation 09/19/2019 06:58 AM 09/19/2019 07:03 AM 0.000 0.000 0.000 0.000 0.000 Not Reported Not Reported
09/20/2019 01:23 PM 59.54 47.84 35.06 60.08 32.18 39.0 Not Reported 2.24 E 0.00 N 6.04 SE No 0.000 No Precipitation 09/19/2019 06:58 AM 09/19/2019 07:03 AM 0.000 0.000 0.000 0.000 0.000 Not Reported Not Reported
09/20/2019 01:38 PM 59.00 47.48 34.88 60.80 32.18 40.0 Not Reported 1.57 S 2.01 S 4.47 NE No 0.000 No Precipitation 09/19/2019 06:58 AM 09/19/2019 07:03 AM 0.000 0.000 0.000 0.000 0.000 Not Reported Not Reported
09/20/2019 01:53 PM 59.54 47.84 35.42 60.80 32.18 40.0 Not Reported 3.13 NE 2.01 SW 4.92 S No 0.000 No Precipitation 09/19/2019 06:58 AM 09/19/2019 07:03 AM 0.000 0.000 0.000 0.000 0.000 Not Reported Not Reported
09/20/2019 02:08 PM 57.92 46.94 34.52 60.80 32.18 41.0 Not Reported 2.68 NE 1.12 SE 7.38 N No 0.000 No Precipitation 09/19/2019 06:58 AM 09/19/2019 07:03 AM 0.000 0.000 0.000 0.000 0.000 Not Reported Not Reported
09/20/2019 02:23 PM 58.28 47.30 35.06 60.80 32.18 41.0 Not Reported 1.79 N 0.67 N 3.36 N No 0.000 No Precipitation 09/19/2019 06:58 AM 09/19/2019 07:03 AM 0.000 0.000 0.000 0.000 0.000 Not Reported Not Reported
09/20/2019 02:38 PM 58.82 47.12 33.80 60.80 32.18 38.0 Not Reported 0.00 SW 0.00 SW 2.68 NW No 0.000 No Precipitation 09/19/2019 06:58 AM 09/19/2019 07:03 AM 0.000 0.000 0.000 0.000 0.000 Not Reported Not Reported
09/20/2019 02:53 PM 59.72 48.56 36.86 60.80 32.18 42.0 Not Reported 3.36 E 3.58 N 2.91 S No 0.000 No Precipitation 09/19/2019 06:58 AM 09/19/2019 07:03 AM 0.000 0.000 0.000 0.000 0.000 Not Reported Not Reported
09/20/2019 03:08 PM 59.72 47.84 34.88 60.80 32.18 39.0 Not Reported 2.68 E 2.46 N 5.59 E No 0.000 No Precipitation 09/19/2019 06:58 AM 09/19/2019 07:03 AM 0.000 0.000 0.000 0.000 0.000 Not Reported Not Reported
09/20/2019 03:23 PM 58.64 47.48 35.24 60.80 32.18 41.0 Not Reported 2.01 N 4.03 E 3.80 SE No 0.000 No Precipitation 09/19/2019 06:58 AM 09/19/2019 07:03 AM 0.000 0.000 0.000 0.000 0.000 Not Reported Not Reported
09/20/2019 03:38 PM 60.08 48.20 35.60 61.52 32.18 39.0 Not Reported 2.46 SE 1.12 S 4.70 NE No 0.000 No Precipitation 09/19/2019 06:58 AM 09/19/2019 07:03 AM 0.000 0.000 0.000 0.000 0.000 Not Reported Not Reported
09/20/2019 03:53 PM 61.34 49.10 36.32 61.70 32.18 39.0 Not Reported 0.45 SW 1.57 W 4.25 S No 0.000 No Precipitation 09/19/2019 06:58 AM 09/19/2019 07:03 AM 0.000 0.000 0.000 0.000 0.000 Not Reported Not Reported
09/20/2019 04:08 PM 62.06 48.92 35.60 62.42 32.18 37.0 Not Reported 1.79 NW 1.34 NE 4.25 NW No 0.000 No Precipitation 09/19/2019 06:58 AM 09/19/2019 07:03 AM 0.000 0.000 0.000 0.000 0.000 Not Reported Not Reported
09/20/2019 04:24 PM 63.32 50.36 37.22 64.76 32.18 37.0 Not Reported 2.91 NE 2.91 NW 6.49 NE No 0.000 No Precipitation 09/19/2019 06:58 AM 09/19/2019 07:03 AM 0.000 0.000 0.000 0.000 0.000 Not Reported Not Reported
09/20/2019 04:39 PM 62.60 49.28 35.78 64.76 32.18 37.0 Not Reported 3.13 SE 1.34 S 5.37 NE No 0.000 No Precipitation 09/19/2019 06:58 AM 09/19/2019 07:03 AM 0.000 0.000 0.000 0.000 0.000 Not Reported Not Reported
09/20/2019 04:53 PM 61.52 49.10 36.32 64.76 32.18 39.0 Not Reported 3.36 E 2.24 NE 3.80 E No 0.000 No Precipitation 09/19/2019 06:58 AM 09/19/2019 07:03 AM 0.000 0.000 0.000 0.000 0.000 Not Reported Not Reported
09/20/2019 05:08 PM 60.44 48.92 36.86 64.76 32.18 41.0 Not Reported 3.13 S 2.46 SW 6.49 E No 0.000 No Precipitation 09/19/2019 06:58 AM 09/19/2019 07:03 AM 0.000 0.000 0.000 0.000 0.000 Not Reported Not Reported
09/20/2019 05:24 PM 58.64 49.64 39.74 64.76 32.18 52.0 Not Reported 1.12 NW 2.24 NW 4.47 S No 0.000 No Precipitation 09/19/2019 06:58 AM 09/19/2019 07:03 AM 0.000 0.000 0.000 0.000 0.000 Not Reported Not Reported
09/20/2019 05:38 PM 60.80 49.10 37.22 64.76 32.18 41.0 Not Reported 1.34 NE 1.79 NE 2.68 N No 0.000 No Precipitation 09/19/2019 06:58 AM 09/19/2019 07:03 AM 0.000 0.000 0.000 0.000 0.000 Not Reported Not Reported
09/20/2019 05:54 PM 60.26 48.56 36.50 64.76 32.18 41.0 Not Reported 4.25 E 3.80 SE 5.82 NE No 0.000 No Precipitation 09/19/2019 06:58 AM 09/19/2019 07:03 AM 0.000 0.000 0.000 0.000 0.000 Not Reported Not Reported
09/20/2019 06:09 PM 57.74 48.20 39.56 64.76 32.18 49.0 Not Reported 1.57 N 3.13 N 5.82 E No 0.000 No Precipitation 09/19/2019 06:58 AM 09/19/2019 07:03 AM 0.000 0.000 0.000 0.000 0.000 Not Reported Not Reported
09/20/2019 06:23 PM 55.58 47.84 40.28 64.76 32.18 56.0 Not Reported 3.36 N 2.01 N 5.14 N No 0.000 No Precipitation 09/19/2019 06:58 AM 09/19/2019 07:03 AM 0.000 0.000 0.000 0.000 0.000 Not Reported Not Reported
09/20/2019 06:38 PM 54.50 46.76 38.84 64.76 32.18 55.0 Not Reported 3.58 N 4.70 N 4.03 N No 0.000 No Precipitation 09/19/2019 06:58 AM 09/19/2019 07:03 AM 0.000 0.000 0.000 0.000 0.000 Not Reported Not Reported
09/20/2019 06:53 PM 51.98 46.76 41.54 64.76 32.18 67.0 Not Reported 1.34 NW 0.67 NW 4.25 N No 0.000 No Precipitation 09/19/2019 06:58 AM 09/19/2019 07:03 AM 0.000 0.000 0.000 0.000 0.000 Not Reported Not Reported
09/20/2019 07:08 PM 50.36 45.32 40.28 64.76 32.18 68.0 Not Reported 0.45 NW 1.34 N 2.68 NE No 0.000 No Precipitation 09/19/2019 06:58 AM 09/19/2019 07:03 AM 0.000 0.000 0.000 0.000 0.000 Not Reported Not Reported
09/20/2019 07:24 PM 48.56 44.60 40.46 64.76 32.18 73.0 Not Reported 0.67 NW 1.57 N 2.24 NW No 0.000 No Precipitation 09/19/2019 06:58 AM 09/19/2019 07:03 AM 0.000 0.000 0.000 0.000 0.000 Not Reported Not Reported
09/20/2019 07:39 PM 47.48 44.06 40.64 64.76 32.18 77.0 Not Reported 0.67 NW 0.67 W 1.57 N No 0.000 No Precipitation 09/19/2019 06:58 AM 09/19/2019 07:03 AM 0.000 0.000 0.000 0.000 0.000 Not Reported Not Reported
09/20/2019 07:53 PM 46.04 43.34 40.64 64.76 32.18 80.0 Not Reported 0.45 W 0.22 W 0.89 W No 0.000 No Precipitation 09/19/2019 06:58 AM 09/19/2019 07:03 AM 0.000 0.000 0.000 0.000 0.000 Not Reported Not Reported
09/20/2019 08:08 PM 44.78 42.44 39.74 64.76 32.18 81.0 Not Reported 0.00 S 0.00 W 0.89 W No 0.000 No Precipitation 09/19/2019 06:58 AM 09/19/2019 07:03 AM 0.000 0.000 0.000 0.000 0.000 Not Reported Not Reported
09/20/2019 08:23 PM 44.06 42.08 39.74 64.76 32.18 84.0 Not Reported 0.89 W 0.22 W 1.34 NW No 0.000 No Precipitation 09/19/2019 06:58 AM 09/19/2019 07:03 AM 0.000 0.000 0.000 0.000 0.000 Not Reported Not Reported
09/20/2019 08:38 PM 43.34 41.54 39.38 64.76 32.18 85.0 Not Reported 0.67 S 0.22 SW 1.34 W No 0.000 No Precipitation 09/19/2019 06:58 AM 09/19/2019 07:03 AM 0.000 0.000 0.000 0.000 0.000 Not Reported Not Reported
09/20/2019 08:53 PM 42.26 40.64 38.66 64.76 32.18 86.0 Not Reported 2.01 NW 1.57 N 1.57 SE No 0.000 No Precipitation 09/19/2019 06:58 AM 09/19/2019 07:03 AM 0.000 0.000 0.000 0.000 0.000 Not Reported Not Reported
09/20/2019 09:08 PM 42.26 40.46 38.48 64.76 32.18 86.0 Not Reported 1.79 NW 1.34 N 2.91 NW No 0.000 No Precipitation 09/19/2019 06:58 AM 09/19/2019 07:03 AM 0.000 0.000 0.000 0.000 0.000 Not Reported Not Reported
09/20/2019 09:23 PM 42.08 40.46 38.66 64.76 32.18 87.0 Not Reported 2.01 W 0.67 S 2.24 NW No 0.000 No Precipitation 09/19/2019 06:58 AM 09/19/2019 07:03 AM 0.000 0.000 0.000 0.000 0.000 Not Reported Not Reported
09/20/2019 09:38 PM 41.54 40.10 38.12 64.76 32.18 87.0 Not Reported 1.79 N 2.01 NW 2.91 SW No 0.000 No Precipitation 09/19/2019 06:58 AM 09/19/2019 07:03 AM 0.000 0.000 0.000 0.000 0.000 Not Reported Not Reported
09/20/2019 09:53 PM 41.18 39.74 38.12 64.76 32.18 88.0 Not Reported 0.00 W 0.00 W 2.68 NW No 0.000 No Precipitation 09/19/2019 06:58 AM 09/19/2019 07:03 AM 0.000 0.000 0.000 0.000 0.000 Not Reported Not Reported
09/20/2019 10:09 PM 40.64 39.38 37.94 64.76 32.18 90.0 Not Reported 0.22 SW 0.00 SW 0.45 W No 0.000 No Precipitation 09/19/2019 06:58 AM 09/19/2019 07:03 AM 0.000 0.000 0.000 0.000 0.000 Not Reported Not Reported
09/20/2019 10:23 PM 40.10 39.02 37.76 64.76 32.18 91.0 Not Reported 0.45 W 0.00 SW 1.12 SW No 0.000 No Precipitation 09/19/2019 06:58 AM 09/19/2019 07:03 AM 0.000 0.000 0.000 0.000 0.000 Not Reported Not Reported
09/20/2019 10:38 PM 39.56 38.66 37.58 64.76 32.18 92.0 Not Reported 0.22 SW 0.00 SW 0.89 W No 0.000 No Precipitation 09/19/2019 06:58 AM 09/19/2019 07:03 AM 0.000 0.000 0.000 0.000 0.000 Not Reported Not Reported
09/20/2019 10:53 PM 39.20 38.30 37.40 64.76 32.18 93.0 Not Reported 0.00 N 0.00 S 1.57 NW No 0.000 No Precipitation 09/19/2019 06:58 AM 09/19/2019 07:03 AM 0.000 0.000 0.000 0.000 0.000 Not Reported Not Reported
09/20/2019 11:08 PM 38.66 37.94 37.22 64.76 32.18 94.0 Not Reported 0.00 W 0.00 W 0.89 NW No 0.000 No Precipitation 09/19/2019 06:58 AM 09/19/2019 07:03 AM 0.000 0.000 0.000 0.000 0.000 Not Reported Not Reported
09/20/2019 11:23 PM 38.12 37.58 36.86 64.76 32.18 94.0 Not Reported 0.00 N 0.00 W 1.34 W No 0.000 No Precipitation 09/19/2019 06:58 AM 09/19/2019 07:03 AM 0.000 0.000 0.000 0.000 0.000 Not Reported Not Reported
09/20/2019 11:38 PM 37.94 37.40 36.68 64.76 32.18 95.0 Not Reported 0.22 NW 0.00 NW 0.00 W No 0.000 No Precipitation 09/19/2019 06:58 AM 09/19/2019 07:03 AM 0.000 0.000 0.000 0.000 0.000 Not Reported Not Reported
09/20/2019 11:53 PM 37.94 37.40 36.68 64.76 32.18 95.0 Not Reported 0.00 N 0.00 W 0.89 W No 0.000 No Precipitation 09/19/2019 06:58 AM 09/19/2019 07:03 AM 0.000 0.000 0.000 0.000 0.000 Not Reported Not Reported